createdAt,value
2022-08-12T00:00:51.227Z,15.40
2022-08-12T00:03:36.647Z,15.40
2022-08-12T00:06:25.820Z,15.30
2022-08-12T00:09:12.141Z,15.10
2022-08-12T00:11:57.590Z,15.00
2022-08-12T00:14:42.890Z,14.80
2022-08-12T00:17:28.379Z,14.70
2022-08-12T00:20:13.677Z,14.50
2022-08-12T00:23:00.165Z,14.40
2022-08-12T00:26:23.343Z,14.30
2022-08-12T00:29:14.055Z,14.40
2022-08-12T00:32:01.310Z,14.40
2022-08-12T00:34:51.735Z,14.30
2022-08-12T00:37:39.073Z,14.20
2022-08-12T00:40:26.411Z,14.20
2022-08-12T00:42:53.932Z,14.30
2022-08-12T00:45:21.335Z,14.30
2022-08-12T00:47:51.623Z,14.30
2022-08-12T00:50:21.223Z,14.20
2022-08-12T00:52:50.235Z,14.30
2022-08-12T00:55:18.481Z,14.20
2022-08-12T00:57:48.766Z,14.20
2022-08-12T01:00:21.514Z,14.30
2022-08-12T01:02:58.149Z,14.20
2022-08-12T01:05:44.422Z,14.20
2022-08-12T01:08:49.978Z,14.20
2022-08-12T01:11:29.495Z,14.10
2022-08-12T01:13:58.485Z,14.10
2022-08-12T01:16:26.368Z,13.90
2022-08-12T01:18:55.102Z,13.90
2022-08-12T01:21:28.164Z,13.70
2022-08-12T01:24:30.603Z,13.50
2022-08-12T01:26:59.398Z,13.30
2022-08-12T01:29:32.940Z,13.20
2022-08-12T01:32:05.431Z,13.10
2022-08-12T01:34:37.450Z,13.00
2022-08-12T01:37:07.996Z,12.90
2022-08-12T01:40:31.554Z,12.80
2022-08-12T01:42:51.986Z,12.80
2022-08-12T01:45:24.703Z,12.80
2022-08-12T01:48:13.658Z,12.80
2022-08-12T01:52:14.690Z,12.80
2022-08-12T01:54:06.121Z,12.80
2022-08-12T01:56:52.099Z,12.80
2022-08-12T01:59:47.069Z,12.80
2022-08-12T02:02:46.467Z,12.90
2022-08-12T02:05:48.577Z,13.00
2022-08-12T02:08:36.451Z,13.00
2022-08-12T02:11:18.406Z,12.90
2022-08-12T02:14:03.399Z,12.80
2022-08-12T02:16:39.126Z,12.70
2022-08-12T02:19:30.811Z,12.50
2022-08-12T02:22:22.191Z,12.40
2022-08-12T02:24:50.906Z,12.30
2022-08-12T02:27:20.476Z,12.30
2022-08-12T02:29:48.701Z,12.20
2022-08-12T02:32:16.002Z,12.10
2022-08-12T02:34:44.687Z,12.30
2022-08-12T02:37:15.428Z,12.30
2022-08-12T02:39:49.797Z,12.30
2022-08-12T02:42:20.585Z,12.30
2022-08-12T02:44:53.204Z,12.20
2022-08-12T02:47:58.284Z,12.30
2022-08-12T02:50:11.280Z,12.20
2022-08-12T02:52:38.770Z,12.30
2022-08-12T02:55:34.409Z,12.40
2022-08-12T02:58:09.123Z,12.40
2022-08-12T03:00:40.619Z,12.40
2022-08-12T03:03:10.133Z,12.40
2022-08-12T03:05:49.007Z,12.30
2022-08-12T03:08:31.922Z,12.30
2022-08-12T03:11:14.297Z,12.10
2022-08-12T03:13:47.157Z,12.10
2022-08-12T03:16:14.872Z,12.10
2022-08-12T03:18:46.183Z,12.10
2022-08-12T03:21:16.771Z,12.00
2022-08-12T03:23:46.148Z,12.10
2022-08-12T03:26:14.793Z,12.00
2022-08-12T03:28:51.790Z,12.00
2022-08-12T03:31:22.005Z,12.00
2022-08-12T03:34:01.483Z,12.00
2022-08-12T03:36:33.499Z,12.00
2022-08-12T03:39:17.784Z,12.00
2022-08-12T03:41:58.100Z,12.00
2022-08-12T03:44:49.769Z,11.90
2022-08-12T03:47:41.389Z,11.90
2022-08-12T03:50:27.060Z,11.90
2022-08-12T03:53:12.401Z,12.00
2022-08-12T03:55:58.355Z,12.00
2022-08-12T03:58:44.612Z,11.90
2022-08-12T04:01:13.098Z,12.00
2022-08-12T04:03:52.463Z,11.90
2022-08-12T04:06:35.082Z,11.90
2022-08-12T04:09:16.152Z,11.90
2022-08-12T04:12:03.793Z,11.90
2022-08-12T04:14:31.694Z,11.90
2022-08-12T04:16:59.019Z,11.90
2022-08-12T04:19:26.665Z,11.90
2022-08-12T04:22:01.875Z,11.80
2022-08-12T04:24:35.256Z,11.90
2022-08-12T04:27:08.663Z,11.90
2022-08-12T04:30:30.607Z,11.90
2022-08-12T04:32:27.821Z,12.00
2022-08-12T04:34:55.292Z,12.00
2022-08-12T04:37:23.295Z,12.00
2022-08-12T04:39:51.129Z,12.10
2022-08-12T04:42:20.174Z,12.10
2022-08-12T04:44:47.185Z,12.20
2022-08-12T04:47:15.278Z,12.20
2022-08-12T04:49:44.624Z,12.20
2022-08-12T04:52:12.407Z,12.20
2022-08-12T04:54:39.237Z,12.20
2022-08-12T04:57:09.523Z,12.30
2022-08-12T04:59:46.906Z,12.20
2022-08-12T05:02:20.853Z,12.30
2022-08-12T05:04:56.263Z,12.40
2022-08-12T05:07:27.961Z,12.40
2022-08-12T05:09:58.709Z,12.50
2022-08-12T05:12:39.741Z,12.50
2022-08-12T05:15:19.734Z,12.60
2022-08-12T05:17:55.565Z,12.60
2022-08-12T05:20:23.062Z,12.70
2022-08-12T05:22:50.071Z,12.70
2022-08-12T05:25:21.317Z,12.80
2022-08-12T05:27:58.555Z,12.90
2022-08-12T05:30:27.461Z,12.90
2022-08-12T05:32:59.950Z,13.00
2022-08-12T05:35:27.777Z,13.10
2022-08-12T05:38:14.840Z,13.20
2022-08-12T05:40:42.162Z,13.30
2022-08-12T05:43:09.117Z,13.40
2022-08-12T05:45:37.495Z,13.50
2022-08-12T05:48:07.186Z,13.60
2022-08-12T05:50:35.673Z,13.70
2022-08-12T05:53:03.127Z,13.90
2022-08-12T05:55:31.795Z,14.00
2022-08-12T05:57:59.400Z,14.10
2022-08-12T06:00:26.860Z,14.20
2022-08-12T06:02:57.127Z,14.30
2022-08-12T06:05:24.037Z,14.40
2022-08-12T06:08:01.438Z,14.60
2022-08-12T06:10:33.280Z,14.70
2022-08-12T06:13:02.655Z,14.80
2022-08-12T06:15:30.616Z,15.00
2022-08-12T06:18:16.278Z,15.10
2022-08-12T06:20:46.708Z,15.20
2022-08-12T06:23:15.353Z,15.40
2022-08-12T06:25:46.598Z,15.60
2022-08-12T06:28:17.527Z,15.70
2022-08-12T06:31:02.623Z,15.80
2022-08-12T06:33:59.791Z,16.00
2022-08-12T06:36:29.520Z,16.20
2022-08-12T06:38:57.140Z,16.40
2022-08-12T06:42:04.922Z,16.60
2022-08-12T06:44:29.470Z,16.80
2022-08-12T06:46:56.826Z,17.10
2022-08-12T06:49:25.221Z,17.30
2022-08-12T06:51:56.155Z,17.50
2022-08-12T06:54:31.173Z,17.80
2022-08-12T06:57:05.297Z,18.00
2022-08-12T06:59:46.920Z,18.30
2022-08-12T07:02:13.785Z,18.60
2022-08-12T07:04:40.725Z,18.80
2022-08-12T07:07:09.022Z,19.00
2022-08-12T07:10:06.511Z,19.30
2022-08-12T07:12:26.987Z,19.50
2022-08-12T07:14:55.786Z,19.70
2022-08-12T07:17:23.751Z,19.90
2022-08-12T07:19:52.031Z,20.00
2022-08-12T07:22:19.154Z,20.30
2022-08-12T07:25:05.961Z,20.50
2022-08-12T07:27:40.682Z,20.80
2022-08-12T07:30:09.842Z,21.30
2022-08-12T07:32:36.975Z,22.00
2022-08-12T07:35:04.329Z,23.80
2022-08-12T07:37:31.483Z,25.90
2022-08-12T07:40:00.439Z,27.80
2022-08-12T07:42:31.284Z,29.60
2022-08-12T07:44:59.519Z,31.50
2022-08-12T07:47:27.402Z,33.10
2022-08-12T07:50:06.282Z,34.50
2022-08-12T07:52:43.105Z,35.80
2022-08-12T07:55:11.750Z,37.20
2022-08-12T07:58:08.735Z,37.50
2022-08-12T08:00:38.628Z,37.80
2022-08-12T08:03:11.496Z,37.50
2022-08-12T08:05:46.285Z,36.90
2022-08-12T08:08:19.571Z,36.80
2022-08-12T08:10:51.602Z,37.30
2022-08-12T08:13:19.125Z,38.50
2022-08-12T08:16:02.974Z,39.10
2022-08-12T08:18:37.437Z,39.60
2022-08-12T08:21:05.770Z,40.90
2022-08-12T08:23:56.429Z,40.20
2022-08-12T08:26:27.396Z,41.20
2022-08-12T08:28:57.508Z,41.70
2022-08-12T08:31:26.317Z,41.20
2022-08-12T08:34:05.416Z,41.40
2022-08-12T08:36:45.389Z,41.00
2022-08-12T08:39:19.164Z,41.80
2022-08-12T08:42:14.032Z,42.40
2022-08-12T08:44:58.413Z,41.90
2022-08-12T08:47:30.006Z,42.50
2022-08-12T08:50:01.595Z,42.10
2022-08-12T08:52:40.562Z,40.00
2022-08-12T08:55:14.304Z,40.40
2022-08-12T08:57:52.973Z,39.70
2022-08-12T09:00:22.996Z,39.00
2022-08-12T09:02:59.083Z,37.80
2022-08-12T09:05:43.161Z,37.40
2022-08-12T09:17:00.111Z,38.10
2022-08-12T09:19:28.014Z,37.90
2022-08-12T09:21:55.683Z,39.20
2022-08-12T09:24:22.500Z,39.20
2022-08-12T09:26:49.648Z,38.80
2022-08-12T09:30:10.417Z,39.10
2022-08-12T09:32:11.553Z,39.30
2022-08-12T09:34:56.663Z,39.70
2022-08-12T09:37:26.637Z,39.00
2022-08-12T09:40:05.679Z,39.70
2022-08-12T09:43:16.072Z,39.50
2022-08-12T09:46:06.731Z,38.60
2022-08-12T09:48:36.267Z,38.80
2022-08-12T09:51:17.190Z,39.30
2022-08-12T09:54:05.650Z,39.60
2022-08-12T09:57:00.873Z,41.20
2022-08-12T10:00:15.966Z,42.10
2022-08-12T10:02:42.323Z,41.40
2022-08-12T10:05:01.794Z,40.60
2022-08-12T10:07:40.048Z,40.20
2022-08-12T10:10:24.322Z,40.50
2022-08-12T10:13:13.727Z,40.00
2022-08-12T10:16:01.764Z,39.70
2022-08-12T10:18:32.846Z,39.40
2022-08-12T10:21:09.521Z,38.70
2022-08-12T10:23:39.820Z,38.60
2022-08-12T10:26:37.722Z,39.60
2022-08-12T10:30:41.035Z,39.00
2022-08-12T10:33:02.439Z,39.20
2022-08-12T10:35:08.878Z,39.60
2022-08-12T10:38:36.133Z,40.90
2022-08-12T10:40:28.642Z,41.70
2022-08-12T10:43:16.839Z,42.00
2022-08-12T10:45:45.951Z,40.80
2022-08-12T10:48:21.595Z,39.30
2022-08-12T10:51:01.838Z,38.40
2022-08-12T10:53:44.018Z,38.60
2022-08-12T10:56:11.754Z,38.50
2022-08-12T10:58:39.183Z,38.40
2022-08-12T11:04:14.320Z,39.10
2022-08-12T11:04:25.627Z,39.70
2022-08-12T11:07:09.743Z,40.00
2022-08-12T11:09:54.339Z,39.70
2022-08-12T11:12:56.458Z,37.70
2022-08-12T11:15:19.378Z,37.80
2022-08-12T11:17:53.187Z,37.70
2022-08-12T11:20:24.076Z,38.40
2022-08-12T11:23:04.113Z,39.00
2022-08-12T11:25:55.864Z,38.60
2022-08-12T11:28:33.923Z,39.40
2022-08-12T11:31:03.337Z,38.90
2022-08-12T11:34:05.378Z,38.00
2022-08-12T11:36:18.239Z,36.20
2022-08-12T11:38:50.932Z,35.00
2022-08-12T11:41:31.092Z,35.00
2022-08-12T11:44:33.390Z,34.70
2022-08-12T11:46:51.242Z,34.80
2022-08-12T11:49:32.323Z,34.40
2022-08-12T11:52:03.897Z,34.60
2022-08-12T11:54:31.607Z,34.10
2022-08-12T11:57:01.903Z,34.40
2022-08-12T12:02:01.209Z,34.90
2022-08-12T12:02:20.773Z,35.70
2022-08-12T12:04:52.534Z,36.00
2022-08-12T12:08:38.742Z,35.50
2022-08-12T12:10:16.042Z,35.90
2022-08-12T12:12:49.919Z,34.70
2022-08-12T12:15:25.343Z,34.70
2022-08-12T12:18:04.252Z,35.20
2022-08-12T12:20:31.235Z,34.70
2022-08-12T12:22:58.110Z,35.00
2022-08-12T12:25:59.565Z,35.50
2022-08-12T12:28:37.393Z,35.50
2022-08-12T12:31:00.055Z,34.90
2022-08-12T12:33:27.231Z,34.40
2022-08-12T12:36:22.118Z,34.60
2022-08-12T12:38:52.154Z,34.30
2022-08-12T12:41:19.332Z,34.50
2022-08-12T12:43:47.587Z,34.20
2022-08-12T12:46:31.278Z,33.40
2022-08-12T12:48:58.166Z,33.10
2022-08-12T12:51:56.419Z,33.00
2022-08-12T12:54:12.570Z,32.90
2022-08-12T12:56:42.269Z,33.50
2022-08-12T12:59:55.397Z,34.00
2022-08-12T13:02:02.056Z,34.20
2022-08-12T13:04:34.923Z,34.60
2022-08-12T13:07:02.131Z,34.40
2022-08-12T13:09:35.794Z,34.00
2022-08-12T13:12:05.074Z,33.40
2022-08-12T13:14:35.176Z,33.80
2022-08-12T13:17:06.380Z,34.20
2022-08-12T13:19:44.518Z,34.80
2022-08-12T13:22:23.531Z,34.80
2022-08-12T13:24:56.366Z,34.90
2022-08-12T13:27:35.430Z,34.30
2022-08-12T13:30:17.640Z,34.10
2022-08-12T13:32:57.271Z,33.80
2022-08-12T13:36:05.817Z,34.10
2022-08-12T13:38:54.148Z,34.30
2022-08-12T13:41:33.834Z,33.80
2022-08-12T13:44:02.936Z,32.80
2022-08-12T13:46:34.558Z,32.80
2022-08-12T13:49:03.210Z,32.80
2022-08-12T13:51:40.906Z,32.70
2022-08-12T13:54:11.656Z,32.00
2022-08-12T13:56:49.990Z,32.10
2022-08-12T13:59:24.528Z,32.30
2022-08-12T14:01:57.913Z,32.50
2022-08-12T14:04:25.423Z,32.50
2022-08-12T14:06:58.337Z,32.20
2022-08-12T14:09:30.168Z,32.00
2022-08-12T14:12:10.477Z,31.60
2022-08-12T14:14:52.477Z,31.70
2022-08-12T14:17:30.377Z,32.10
2022-08-12T14:20:14.389Z,32.10
2022-08-12T14:22:41.488Z,32.30
2022-08-12T14:25:16.922Z,32.50
2022-08-12T14:28:03.865Z,33.00
2022-08-12T14:30:31.472Z,32.80
2022-08-12T14:33:03.321Z,32.60
2022-08-12T14:35:34.026Z,32.00
2022-08-12T14:38:25.449Z,31.80
2022-08-12T14:40:58.328Z,31.60
2022-08-12T14:43:31.708Z,31.80
2022-08-12T14:46:16.575Z,31.70
2022-08-12T14:48:46.264Z,31.40
2022-08-12T14:52:42.660Z,30.50
2022-08-12T14:56:58.296Z,29.60
2022-08-12T14:57:20.156Z,29.00
2022-08-12T15:00:14.008Z,28.60
2022-08-12T15:02:40.986Z,28.60
2022-08-12T15:05:08.693Z,28.80
2022-08-12T15:07:49.020Z,28.90
2022-08-12T15:10:31.129Z,29.10
2022-08-12T15:12:59.834Z,29.20
2022-08-12T15:15:29.602Z,29.30
2022-08-12T15:18:02.957Z,29.40
2022-08-12T15:20:32.979Z,29.50
2022-08-12T15:23:06.061Z,29.40
2022-08-12T15:25:49.303Z,29.50
2022-08-12T15:28:33.514Z,29.30
2022-08-12T15:31:21.609Z,29.30
2022-08-12T15:33:58.148Z,29.10
2022-08-12T15:36:55.345Z,28.90
2022-08-12T15:39:16.530Z,28.70
2022-08-12T15:41:49.567Z,28.50
2022-08-12T15:44:38.233Z,28.60
2022-08-12T15:47:04.804Z,28.50
2022-08-12T15:49:54.158Z,28.40
2022-08-12T15:52:27.556Z,28.40
2022-08-12T15:54:58.850Z,28.30
2022-08-12T15:57:35.997Z,28.40
2022-08-12T16:00:06.832Z,28.40
2022-08-12T16:02:50.702Z,28.50
2022-08-12T16:06:10.279Z,28.20
2022-08-12T16:08:17.088Z,28.20
2022-08-12T16:10:45.581Z,28.10
2022-08-12T16:13:15.054Z,28.10
2022-08-12T16:15:51.053Z,28.20
2022-08-12T16:18:37.327Z,28.10
2022-08-12T16:21:10.435Z,28.00
2022-08-12T16:23:57.995Z,28.00
2022-08-12T16:26:32.151Z,27.90
2022-08-12T16:29:14.972Z,27.90
2022-08-12T16:31:43.382Z,27.80
2022-08-12T16:34:39.796Z,27.80
2022-08-12T16:37:08.725Z,27.70
2022-08-12T16:39:59.913Z,27.50
2022-08-12T16:42:28.272Z,27.30
2022-08-12T16:45:02.031Z,27.00
2022-08-12T16:47:57.489Z,26.80
2022-08-12T16:50:31.007Z,26.50
2022-08-12T16:52:59.904Z,26.30
2022-08-12T16:55:35.070Z,26.20
2022-08-12T16:58:28.412Z,26.00
2022-08-12T17:00:58.723Z,25.80
2022-08-12T17:03:30.571Z,25.70
2022-08-12T17:05:57.478Z,25.50
2022-08-12T17:08:29.097Z,25.50
2022-08-12T17:10:56.359Z,25.40
2022-08-12T17:13:26.261Z,25.50
2022-08-12T17:16:04.945Z,25.60
2022-08-12T17:18:42.964Z,25.70
2022-08-12T17:21:12.072Z,25.80
2022-08-12T17:23:48.660Z,25.80
2022-08-12T17:26:28.342Z,25.90
2022-08-12T17:28:59.409Z,25.90
2022-08-12T17:32:01.007Z,25.90
2022-08-12T17:34:38.292Z,25.90
2022-08-12T17:37:10.638Z,25.80
2022-08-12T17:40:12.530Z,25.80
2022-08-12T17:42:32.759Z,25.70
2022-08-12T17:45:01.936Z,25.60
2022-08-12T17:48:04.543Z,25.60
2022-08-12T17:50:43.341Z,25.50
2022-08-12T17:53:11.419Z,25.50
2022-08-12T17:55:47.294Z,25.50
2022-08-12T17:58:17.074Z,25.40
2022-08-12T18:00:45.716Z,25.30
2022-08-12T18:04:05.733Z,25.30
2022-08-12T18:06:13.760Z,25.20
2022-08-12T18:08:53.547Z,25.10
2022-08-12T18:12:04.306Z,25.10
2022-08-12T18:14:30.733Z,25.00
2022-08-12T18:17:01.825Z,24.80
2022-08-12T18:20:03.759Z,24.70
2022-08-12T18:22:22.033Z,24.60
2022-08-12T18:25:18.682Z,24.60
2022-08-12T18:28:15.058Z,24.50
2022-08-12T18:30:53.378Z,24.40
2022-08-12T18:33:26.083Z,24.20
2022-08-12T18:35:56.785Z,24.10
2022-08-12T18:38:25.746Z,23.90
2022-08-12T18:41:21.950Z,23.70
2022-08-12T18:44:00.003Z,23.60
2022-08-12T18:46:53.287Z,23.50
2022-08-12T18:49:37.895Z,23.30
2022-08-12T18:52:08.000Z,23.10
2022-08-12T18:54:49.785Z,23.00
2022-08-12T18:58:07.619Z,22.90
2022-08-12T19:00:20.888Z,22.70
2022-08-12T19:02:50.870Z,22.60
2022-08-12T19:05:17.869Z,22.40
2022-08-12T19:08:00.132Z,22.30
2022-08-12T19:10:30.672Z,22.20
2022-08-12T19:13:22.990Z,22.10
2022-08-12T19:15:50.380Z,21.90
2022-08-12T19:18:17.755Z,21.90
2022-08-12T19:20:50.398Z,21.80
2022-08-12T19:23:21.409Z,21.70
2022-08-12T19:25:59.729Z,21.70
2022-08-12T19:28:34.134Z,21.60
2022-08-12T19:31:45.277Z,21.50
2022-08-12T19:35:32.806Z,21.40
2022-08-12T19:38:04.332Z,21.40
2022-08-12T19:40:31.613Z,21.20
2022-08-12T19:43:13.383Z,21.10
2022-08-12T19:45:51.474Z,21.00
2022-08-12T19:48:19.990Z,21.00
2022-08-12T19:50:49.915Z,20.80
2022-08-12T19:53:18.674Z,20.80
2022-08-12T19:55:51.766Z,20.70
2022-08-12T19:58:20.274Z,20.60
2022-08-12T20:00:53.330Z,20.50
2022-08-12T20:03:38.276Z,20.40
2022-08-12T20:06:23.532Z,20.30
2022-08-12T20:08:56.765Z,20.20
2022-08-12T20:12:11.892Z,20.10
2022-08-12T20:14:19.322Z,20.00
2022-08-12T20:16:53.228Z,20.00
2022-08-12T20:20:05.472Z,20.00
2022-08-12T20:22:24.291Z,19.80
2022-08-12T20:25:01.796Z,19.70
2022-08-12T20:28:05.211Z,19.60
2022-08-12T20:30:16.194Z,19.50
2022-08-12T20:32:56.718Z,19.40
2022-08-12T20:36:06.755Z,19.30
2022-08-12T20:38:26.030Z,19.20
2022-08-12T20:40:55.405Z,19.10
2022-08-12T20:43:24.181Z,19.00
2022-08-12T20:45:57.374Z,19.00
2022-08-12T20:48:28.702Z,18.80
2022-08-12T20:51:04.065Z,18.70
2022-08-12T20:53:57.443Z,18.70
2022-08-12T20:56:35.130Z,18.50
2022-08-12T20:59:06.071Z,18.40
2022-08-12T21:01:47.122Z,18.40
2022-08-12T21:04:35.501Z,18.40
2022-08-12T21:07:09.371Z,18.20
2022-08-12T21:09:50.343Z,18.20
2022-08-12T21:12:31.340Z,18.10
2022-08-12T21:15:22.869Z,18.00
2022-08-12T21:18:11.069Z,17.80
2022-08-12T21:20:52.521Z,17.70
2022-08-12T21:23:21.449Z,17.60
2022-08-12T21:25:51.324Z,17.50
2022-08-12T21:28:20.699Z,17.40
2022-08-12T21:31:11.007Z,17.30
2022-08-12T21:33:58.675Z,17.20
2022-08-12T21:36:32.252Z,17.10
2022-08-12T21:39:18.230Z,17.10
2022-08-12T21:41:50.191Z,17.10
2022-08-12T21:44:24.837Z,17.00
2022-08-12T21:47:21.196Z,17.00
2022-08-12T21:50:03.527Z,16.90
2022-08-12T21:52:43.384Z,16.80
2022-08-12T21:55:18.164Z,16.70
2022-08-12T21:57:53.477Z,16.60
2022-08-12T22:00:32.438Z,16.50
2022-08-12T22:04:01.585Z,16.40
2022-08-12T22:06:19.968Z,16.40
2022-08-12T22:08:57.774Z,16.30
2022-08-12T22:11:41.139Z,16.20
2022-08-12T22:14:10.382Z,16.20
2022-08-12T22:16:53.420Z,16.10
2022-08-12T22:19:21.472Z,16.20
2022-08-12T22:21:54.887Z,16.10
2022-08-12T22:24:26.750Z,16.00
2022-08-12T22:27:08.014Z,15.90
2022-08-12T22:30:04.155Z,15.80
2022-08-12T22:32:31.340Z,15.80
2022-08-12T22:35:23.219Z,15.70
2022-08-12T22:37:53.634Z,15.70
2022-08-12T22:40:22.968Z,15.60
2022-08-12T22:43:09.083Z,15.50
2022-08-12T22:46:00.820Z,15.40
2022-08-12T22:48:27.651Z,15.40
2022-08-12T22:50:59.207Z,15.40
2022-08-12T22:53:35.875Z,15.30
2022-08-12T22:56:06.751Z,15.20
2022-08-12T22:58:40.606Z,15.20
2022-08-12T23:01:10.808Z,15.20
2022-08-12T23:03:48.205Z,15.20
2022-08-12T23:06:23.827Z,15.10
2022-08-12T23:08:52.259Z,15.10
2022-08-12T23:11:23.838Z,15.10
2022-08-12T23:13:56.972Z,15.00
2022-08-12T23:16:31.035Z,14.90
2022-08-12T23:19:10.544Z,14.80
2022-08-12T23:22:06.167Z,14.80
2022-08-12T23:24:55.523Z,14.80
2022-08-12T23:27:44.133Z,14.70
2022-08-12T23:30:24.733Z,14.50
2022-08-12T23:33:00.050Z,14.60
2022-08-12T23:35:45.364Z,14.70
2022-08-12T23:38:30.973Z,14.70
2022-08-12T23:41:03.384Z,14.70
2022-08-12T23:43:39.146Z,14.50
2022-08-12T23:46:08.682Z,14.50
2022-08-12T23:48:37.587Z,14.30
2022-08-12T23:51:22.318Z,14.20
2022-08-12T23:54:02.520Z,14.10
2022-08-12T23:56:33.220Z,14.00
2022-08-12T23:59:02.763Z,14.00
